createdAt,value
2022-11-29T21:32:25.443Z,76.53
2022-11-29T21:34:54.162Z,77.49
2022-11-29T21:37:26.248Z,77.52
2022-11-29T21:39:54.708Z,78.85
2022-11-29T21:42:22.789Z,79.31
2022-11-29T21:44:50.885Z,79.91
2022-11-29T21:47:19.139Z,80.05
2022-11-29T21:49:48.761Z,80.04
2022-11-29T21:52:22.178Z,79.91
2022-11-29T21:54:51.270Z,79.39
2022-11-29T21:57:19.501Z,79.25
2022-11-29T21:59:47.954Z,79.03
2022-11-29T22:02:16.200Z,79.23
2022-11-29T22:04:44.915Z,79.57
2022-11-29T22:07:14.865Z,79.54
2022-11-29T22:09:43.282Z,79.56
2022-11-29T22:12:32.451Z,80.33
2022-11-29T22:14:59.943Z,79.95
2022-11-29T22:17:27.943Z,79.80
2022-11-29T22:19:56.060Z,79.42
2022-11-29T22:22:28.061Z,79.67
2022-11-29T22:24:56.585Z,79.76
2022-11-29T22:27:24.734Z,79.17
2022-11-29T22:29:52.859Z,79.09
2022-11-29T22:32:20.881Z,78.49
2022-11-29T22:34:49.165Z,78.78
2022-11-29T22:37:17.338Z,79.38
2022-11-29T22:39:46.788Z,79.67
2022-11-29T22:42:14.853Z,79.31
2022-11-29T22:44:43.011Z,79.04
2022-11-29T22:47:11.032Z,78.95
2022-11-29T22:49:39.203Z,78.59
2022-11-29T22:52:07.373Z,78.65
2022-11-29T22:54:35.402Z,78.90
2022-11-29T22:57:05.314Z,78.38
2022-11-29T22:59:33.485Z,78.38
2022-11-29T23:02:01.805Z,78.15
2022-11-29T23:04:29.960Z,78.10
2022-11-29T23:06:58.039Z,78.30
2022-11-29T23:09:26.148Z,78.23
2022-11-29T23:11:56.788Z,78.23
2022-11-29T23:14:26.463Z,77.97
2022-11-29T23:16:54.601Z,77.75
2022-11-29T23:19:23.611Z,76.96
2022-11-29T23:21:52.061Z,77.03
2022-11-29T23:24:20.238Z,76.76
2022-11-29T23:26:48.927Z,76.69
2022-11-29T23:29:19.258Z,76.90
2022-11-29T23:31:49.654Z,77.02
2022-11-29T23:34:17.935Z,77.07
2022-11-29T23:36:51.323Z,77.27
2022-11-29T23:39:20.670Z,77.18
2022-11-29T23:41:48.779Z,77.01
2022-11-29T23:44:16.879Z,77.29
2022-11-29T23:46:44.915Z,77.18
2022-11-29T23:49:14.372Z,76.58
2022-11-29T23:51:42.630Z,76.91
2022-11-29T23:54:10.855Z,77.09
2022-11-29T23:56:38.981Z,76.96
2022-11-29T23:59:07.546Z,76.99
